Andover, Massachusetts
Current Conditions -  °F | °C
As of 10:10 PM on Monday 26 Jan 2015 (Local Time) from KLWM Reporting Station
Light Snow Light Snow  
Wind Chill: -19°   Ceiling: 2200
Heat Index: -9°   Visibility: 2mi
Dew Point: -12°   Wind: 23mph
Humidity: 81%   Direction: 20°NNE
Pressure: 29.98"   Gusts: 28mph
Location:  42.65°N, 71.14°W
Report Text: KLWM 270310Z AUTO 02020G24KT 2SM -SN BKN022 OVC033 M09/M12 A2998 RMK AO2 P0000 T10891117
Loading
Personal Weather Stations






























Interactive Weather Map New forecast layout! Learn more

10-Day Weather Forecast

Advertisements
Track Severe Weather on mobile